Celtic Voyager — EIQN — position and weather

sailwx.info

Track history (hours):
 
Tides and Currents Weather Stations Pressure Air Temp Water Temp Dewpoint Dewpoint Depression Visibility Wind Speed Wind Dir Waves Ship Positions

Oceanographic research ship Celtic Voyager (Ireland)

Detailed information on ship capabilities available from University of Delaware's Ocean Information Center.

Last reported at 2018-Apr-23 13:22 UTC. Time now 2018-Apr-23 19:06 UTC.
Position N 46°49' W 003°41'.

Length 31 m; beam 8 m.

Type: Ship. MMSI: 250089000.

Date/timePositionNaut miles runAvg speedWind from/ knotsBaromVisibWave heightAir tempDewpointWater temp
2018-Apr-23 13:22N 46°49' W 003°41'8 4.8
2018-Apr-23 11:40N 46°50' W 003°53'17 5.4
2018-Apr-23 08:35N 46°55' W 004°16'0 1.1
2018-Apr-23 08:28N 46°55' W 004°16'4 3.9
2018-Apr-23 07:30N 46°55' W 004°10'4 7.1
2018-Apr-23 06:57N 46°55' W 004°05'1 2.5
2018-Apr-23 06:29N 46°55' W 004°03'12 3.0
2018-Apr-23 02:24N 47°01' W 003°47'2 4.8
2018-Apr-23 02:00N 47°01' W 003°50'2 4.1
2018-Apr-23 01:30N 47°01' W 003°53'6 5.9
2018-Apr-23 00:33N 47°07' W 003°53'2 3.7
2018-Apr-23 00:07N 47°07' W 003°51'1 9.0
2018-Apr-22 23:59N 47°07' W 003°49'6 5.0
2018-Apr-22 22:51N 47°12' W 003°47'0 1.2
2018-Apr-22 22:30N 47°12' W 003°47'6 4.6
2018-Apr-22 21:08N 47°17' W 003°53'1 2.6
2018-Apr-22 20:38N 47°18' W 003°52'3 8.9
2018-Apr-22 20:19N 47°18' W 003°48'1 2.8
2018-Apr-22 19:59N 47°18' W 003°47'3 6.5
2018-Apr-22 19:30N 47°21' W 003°48'3 5.4
2018-Apr-22 19:00N 47°24' W 003°47'2 4.9
2018-Apr-22 18:30N 47°24' W 003°51'1 2.6
2018-Apr-22 18:00N 47°24' W 003°53'4 8.6
2018-Apr-22 17:30N 47°28' W 003°52'2 3.0
2018-Apr-22 17:00N 47°30' W 003°52'4 7.4
2018-Apr-22 16:30N 47°30' W 003°47'3 6.5
2018-Apr-22 16:00N 47°33' W 003°47'2 4.5
2018-Apr-22 15:30N 47°36' W 003°47'4 6.0
2018-Apr-22 14:54N 47°39' W 003°47'2 5.8
2018-Apr-22 14:30N 47°41' W 003°47'4 8.4
2018-Apr-22 14:00N 47°38' W 003°51'3 5.8
2018-Apr-22 13:30N 47°36' W 003°53'4 7.0
2018-Apr-22 13:00N 47°35' W 003°58'2 4.4
2018-Apr-22 12:29N 47°33' W 003°59'3 7.0
2018-Apr-22 12:00N 47°30' W 003°59'2 3.8
2018-Apr-22 11:30N 47°28' W 003°59'4 7.4
2018-Apr-22 10:59N 47°24' W 003°58'2 3.2
2018-Apr-22 10:30N 47°23' W 003°59'4 7.9
2018-Apr-22 09:58N 47°18' W 003°59'2 4.0
2018-Apr-22 09:27N 47°16' W 003°59'4 8.0
2018-Apr-22 09:00N 47°13' W 003°58'2 3.5
2018-Apr-22 08:30N 47°11' W 003°58'4 7.9
2018-Apr-22 08:00N 47°07' W 003°58'3 5.2
2018-Apr-22 07:20N 47°04' W 003°58'2 7.2
2018-Apr-22 07:00N 47°01' W 003°58'2 3.4
2018-Apr-22 06:30N 47°01' W 004°01'3 5.3
2018-Apr-22 06:00N 47°01' W 004°04'2 4.8
2018-Apr-22 05:30N 47°01' W 004°08'3 4.3
2018-Apr-22 04:51N 47°01' W 004°12'2 6.4
2018-Apr-22 04:28N 47°01' W 004°16'7 5.8
2018-Apr-22 03:15N 47°07' W 004°22'4 4.4
2018-Apr-22 02:24N 47°07' W 004°16'4 7.6
2018-Apr-22 01:53N 47°07' W 004°10'3 4.2
2018-Apr-22 01:17N 47°07' W 004°07'1 5.2
2018-Apr-22 01:00N 47°07' W 004°05'3 5.0
2018-Apr-22 00:28N 47°09' W 004°07'4 4.6
2018-Apr-21 23:32N 47°13' W 004°09'1 9.7
2018-Apr-21 23:28N 47°13' W 004°08'3 4.9
2018-Apr-21 22:56N 47°12' W 004°04'6 6.7
2018-Apr-21 22:04N 47°18' W 004°05'0 0.9
2018-Apr-21 22:00N 47°18' W 004°05'3 5.5
2018-Apr-21 21:30N 47°21' W 004°04'8 6.6
2018-Apr-21 20:19N 47°29' W 004°04'1 3.1
2018-Apr-21 19:59N 47°30' W 004°04'3 6.4
2018-Apr-21 19:29N 47°33' W 004°04'3 5.4
2018-Apr-21 19:00N 47°36' W 004°04'3 5.5
2018-Apr-21 18:30N 47°38' W 004°07'4 8.0
2018-Apr-21 18:00N 47°41' W 004°10'2 3.3
2018-Apr-21 17:30N 47°41' W 004°12'2 4.7
2018-Apr-21 17:00N 47°41' W 004°16'4 7.2
2018-Apr-21 16:30N 47°41' W 004°21'4 5.0
2018-Apr-21 15:37N 47°39' W 004°16'110.2
2018-Apr-21 15:30N 47°38' W 004°15'4 6.7
2018-Apr-21 14:58N 47°36' W 004°10'6 5.8
2018-Apr-21 13:59N 47°30' W 004°10'6 6.7
2018-Apr-21 13:07N 47°24' W 004°10'0 0.9
2018-Apr-21 13:00N 47°24' W 004°10'6 6.1
2018-Apr-21 12:04N 47°18' W 004°10'0 1.3
2018-Apr-21 12:00N 47°18' W 004°10'12 4.3
2018-Apr-21 09:10N 47°30' W 004°16'1 5.6
2018-Apr-21 08:59N 47°31' W 004°16'4 8.4
2018-Apr-21 08:28N 47°35' W 004°16'7 5.8
2018-Apr-21 07:14N 47°41' W 004°22'6 2.5
2018-Apr-21 04:58N 47°36' W 004°22'1 2.8
2018-Apr-21 04:29N 47°34' W 004°21'4 9.5
2018-Apr-21 04:01N 47°30' W 004°22'4 5.5
2018-Apr-21 03:17N 47°26' W 004°22'2 8.0
2018-Apr-21 03:00N 47°24' W 004°21'3 5.0
2018-Apr-21 02:30N 47°21' W 004°22'3 6.0
2018-Apr-21 02:00N 47°18' W 004°22'2 5.0
2018-Apr-21 01:30N 47°18' W 004°25'33 3.3
2018-Apr-20 15:33N 47°48' W 004°45'0 7.5
2018-Apr-20 15:30N 47°48' W 004°46'3 5.3
2018-Apr-20 14:53N 47°47' W 004°50'3 8.0
2018-Apr-20 14:30N 47°47' W 004°55'4 4.6
2018-Apr-20 13:34N 47°47' W 005°01'1 1.9
2018-Apr-20 13:16N 47°47' W 005°02'1 3.7
2018-Apr-20 13:00N 47°46' W 005°02'4 8.4
2018-Apr-20 12:30N 47°42' W 005°01'3 3.9
2018-Apr-20 11:42N 47°42' W 004°57'0 1.6
2018-Apr-20 11:30N 47°42' W 004°56'2 3.6
2018-Apr-20 10:51N 47°41' W 004°53'2 2.7
2018-Apr-20 10:09N 47°41' W 004°50'1 4.7
2018-Apr-20 09:52N 47°39' W 004°51'20 3.5
2018-Apr-20 04:12N 47°24' W 004°33'2 8.1
2018-Apr-20 03:59N 47°22' W 004°33'3 7.1
2018-Apr-20 03:30N 47°18' W 004°33'4 5.4
2018-Apr-20 02:51N 47°15' W 004°33'6 3.3
2018-Apr-20 01:01N 47°13' W 004°25'0 9.0
2018-Apr-20 00:58N 47°13' W 004°24'2 3.9
2018-Apr-20 00:30N 47°13' W 004°21'4 4.8
2018-Apr-19 23:36N 47°13' W 004°15'1 3.4
2018-Apr-19 23:25N 47°13' W 004°14'6 9.7
2018-Apr-19 22:46N 47°15' W 004°05'3 9.8
2018-Apr-19 22:27N 47°16' W 004°01'5 9.7
2018-Apr-19 21:57N 47°17' W 003°54'4 9.5
2018-Apr-19 21:30N 47°18' W 003°48'5 9.2
2018-Apr-19 21:00N 47°18' W 003°41'1 2.2
2018-Apr-19 20:29N 47°19' W 003°41'5 9.1
2018-Apr-19 19:54N 47°25' W 003°42'4 9.1
2018-Apr-19 19:30N 47°28' W 003°42'5 9.3
2018-Apr-19 19:00N 47°33' W 003°41'2 4.7
2018-Apr-19 18:29N 47°35' W 003°41'4 7.3
2018-Apr-19 18:00N 47°36' W 003°36'2 4.3
2018-Apr-19 17:30N 47°37' W 003°34'4 8.6
2018-Apr-19 17:00N 47°40' W 003°29'5 9.2
2018-Apr-19 16:30N 47°42' W 003°22'3 5.0
2018-Apr-19 15:59N 47°44' W 003°21'0 0.0
2018-Apr-19 15:29N 47°44' W 003°21'0 0.0
2018-Apr-19 14:59N 47°44' W 003°21'0 0.0
2018-Apr-19 14:29N 47°44' W 003°21'0 0.0
2018-Apr-19 14:00N 47°44' W 003°21'0 0.7
2018-Apr-19 13:31N 47°44' W 003°21'4 8.8
2018-Apr-19 13:00N 47°41' W 003°25'5 9.2
2018-Apr-19 12:30N 47°40' W 003°32'5 9.2
2018-Apr-19 12:00N 47°39' W 003°39'4 8.9
2018-Apr-19 11:30N 47°39' W 003°45'5 9.2
2018-Apr-19 11:00N 47°38' W 003°52'5 8.8
2018-Apr-19 10:30N 47°38' W 003°59'4 8.5
2018-Apr-19 10:00N 47°39' W 004°05'5 9.4
2018-Apr-19 09:29N 47°41' W 004°11'7 9.2
2018-Apr-19 08:44N 47°44' W 004°21'4 9.6
2018-Apr-19 08:17N 47°46' W 004°26'4 9.7
2018-Apr-19 07:51N 47°48' W 004°32'5 9.9
2018-Apr-19 07:22N 47°51' W 004°38'410.2
2018-Apr-19 07:00N 47°52' W 004°43'510.4
2018-Apr-19 06:30N 47°55' W 004°50'510.1
2018-Apr-19 06:00N 47°58' W 004°56'5 9.4
2018-Apr-19 05:30N 47°60' W 005°02'4 8.3
2018-Apr-19 05:00N 48°02' W 005°08'4 8.0
2018-Apr-19 04:30N 48°04' W 005°12'4 8.0
2018-Apr-19 04:00N 48°07' W 005°17'5 8.1
2018-Apr-19 03:21N 48°11' W 005°22'4 8.2
2018-Apr-19 02:55N 48°14' W 005°26'242 8.0
2018-Apr-17 20:34N 52°16' W 005°54'40 7.4
2018-Apr-17 15:12N 52°55' W 005°58'1 6.9
2018-Apr-17 15:00N 52°56' W 005°57'4 8.6
2018-Apr-17 14:30N 53°01' W 005°58'5 9.6
2018-Apr-17 14:00N 53°05' W 005°59'510.0
2018-Apr-17 13:30N 53°10' W 005°60'5 9.5
2018-Apr-17 13:00N 53°15' W 006°01'5 8.1
2018-Apr-17 12:25N 53°19' W 006°04'3 7.5
2018-Apr-17 11:59N 53°21' W 006°09'3 3.1
2018-Apr-17 11:09N 53°21' W 006°14'0 0.0
2018-Apr-17 10:27N 53°21' W 006°14'0 0.0
2018-Apr-16 03:20N 53°21' W 006°14'0 0.0
2018-Apr-15 10:12N 53°21' W 006°14'1 2.7
2018-Apr-15 10:00N 53°21' W 006°13'7 4.5
2018-Apr-15 08:21N 53°23' W 006°01'1 0.2
2018-Apr-15 05:10N 53°24' W 006°02'0 1.4
2018-Apr-15 04:55N 53°23' W 006°01'0 0.8
2018-Apr-15 04:23N 53°24' W 006°02'0 0.7
2018-Apr-15 03:58N 53°24' W 006°01'27 0.9
2018-Apr-13 21:53N 53°49' W 005°46'  
Track history (hours):
 
Tides and Currents Weather Stations Pressure Air Temp Water Temp Dewpoint Dewpoint Depression Visibility Wind Speed Wind Dir Waves Ship Positions

Oceanographic research ship Celtic Voyager (Ireland)

Detailed information on ship capabilities available from University of Delaware's Ocean Information Center.

Last reported at 2018-Apr-23 13:22 UTC. Time now 2018-Apr-23 19:06 UTC.
Position N 46°49' W 003°41'.

Length 31 m; beam 8 m.

Type: Ship. MMSI: 250089000.

Date/timePositionNaut miles runAvg speedWind from/ knotsBaromVisibWave heightAir tempDewpointWater temp
2018-Apr-23 13:22N 46°49' W 003°41'8 4.8
2018-Apr-23 11:40N 46°50' W 003°53'17 5.4
2018-Apr-23 08:35N 46°55' W 004°16'0 1.1
2018-Apr-23 08:28N 46°55' W 004°16'4 3.9
2018-Apr-23 07:30N 46°55' W 004°10'4 7.1
2018-Apr-23 06:57N 46°55' W 004°05'1 2.5
2018-Apr-23 06:29N 46°55' W 004°03'12 3.0
2018-Apr-23 02:24N 47°01' W 003°47'2 4.8
2018-Apr-23 02:00N 47°01' W 003°50'2 4.1
2018-Apr-23 01:30N 47°01' W 003°53'6 5.9
2018-Apr-23 00:33N 47°07' W 003°53'2 3.7
2018-Apr-23 00:07N 47°07' W 003°51'1 9.0
2018-Apr-22 23:59N 47°07' W 003°49'6 5.0
2018-Apr-22 22:51N 47°12' W 003°47'0 1.2
2018-Apr-22 22:30N 47°12' W 003°47'6 4.6
2018-Apr-22 21:08N 47°17' W 003°53'1 2.6
2018-Apr-22 20:38N 47°18' W 003°52'3 8.9
2018-Apr-22 20:19N 47°18' W 003°48'1 2.8
2018-Apr-22 19:59N 47°18' W 003°47'3 6.5
2018-Apr-22 19:30N 47°21' W 003°48'3 5.4
2018-Apr-22 19:00N 47°24' W 003°47'2 4.9
2018-Apr-22 18:30N 47°24' W 003°51'1 2.6
2018-Apr-22 18:00N 47°24' W 003°53'4 8.6
2018-Apr-22 17:30N 47°28' W 003°52'2 3.0
2018-Apr-22 17:00N 47°30' W 003°52'4 7.4
2018-Apr-22 16:30N 47°30' W 003°47'3 6.5
2018-Apr-22 16:00N 47°33' W 003°47'2 4.5
2018-Apr-22 15:30N 47°36' W 003°47'4 6.0
2018-Apr-22 14:54N 47°39' W 003°47'2 5.8
2018-Apr-22 14:30N 47°41' W 003°47'4 8.4
2018-Apr-22 14:00N 47°38' W 003°51'3 5.8
2018-Apr-22 13:30N 47°36' W 003°53'4 7.0
2018-Apr-22 13:00N 47°35' W 003°58'2 4.4
2018-Apr-22 12:29N 47°33' W 003°59'3 7.0
2018-Apr-22 12:00N 47°30' W 003°59'2 3.8
2018-Apr-22 11:30N 47°28' W 003°59'4 7.4
2018-Apr-22 10:59N 47°24' W 003°58'2 3.2
2018-Apr-22 10:30N 47°23' W 003°59'4 7.9
2018-Apr-22 09:58N 47°18' W 003°59'2 4.0
2018-Apr-22 09:27N 47°16' W 003°59'4 8.0
2018-Apr-22 09:00N 47°13' W 003°58'2 3.5
2018-Apr-22 08:30N 47°11' W 003°58'4 7.9
2018-Apr-22 08:00N 47°07' W 003°58'3 5.2
2018-Apr-22 07:20N 47°04' W 003°58'2 7.2
2018-Apr-22 07:00N 47°01' W 003°58'2 3.4
2018-Apr-22 06:30N 47°01' W 004°01'3 5.3
2018-Apr-22 06:00N 47°01' W 004°04'2 4.8
2018-Apr-22 05:30N 47°01' W 004°08'3 4.3
2018-Apr-22 04:51N 47°01' W 004°12'2 6.4
2018-Apr-22 04:28N 47°01' W 004°16'7 5.8
2018-Apr-22 03:15N 47°07' W 004°22'4 4.4
2018-Apr-22 02:24N 47°07' W 004°16'4 7.6
2018-Apr-22 01:53N 47°07' W 004°10'3 4.2
2018-Apr-22 01:17N 47°07' W 004°07'1 5.2
2018-Apr-22 01:00N 47°07' W 004°05'3 5.0
2018-Apr-22 00:28N 47°09' W 004°07'4 4.6
2018-Apr-21 23:32N 47°13' W 004°09'1 9.7
2018-Apr-21 23:28N 47°13' W 004°08'3 4.9
2018-Apr-21 22:56N 47°12' W 004°04'6 6.7
2018-Apr-21 22:04N 47°18' W 004°05'0 0.9
2018-Apr-21 22:00N 47°18' W 004°05'3 5.5
2018-Apr-21 21:30N 47°21' W 004°04'8 6.6
2018-Apr-21 20:19N 47°29' W 004°04'1 3.1
2018-Apr-21 19:59N 47°30' W 004°04'3 6.4
2018-Apr-21 19:29N 47°33' W 004°04'3 5.4
2018-Apr-21 19:00N 47°36' W 004°04'3 5.5
2018-Apr-21 18:30N 47°38' W 004°07'4 8.0
2018-Apr-21 18:00N 47°41' W 004°10'2 3.3
2018-Apr-21 17:30N 47°41' W 004°12'2 4.7
2018-Apr-21 17:00N 47°41' W 004°16'4 7.2
2018-Apr-21 16:30N 47°41' W 004°21'4 5.0
2018-Apr-21 15:37N 47°39' W 004°16'110.2
2018-Apr-21 15:30N 47°38' W 004°15'4 6.7
2018-Apr-21 14:58N 47°36' W 004°10'6 5.8
2018-Apr-21 13:59N 47°30' W 004°10'6 6.7
2018-Apr-21 13:07N 47°24' W 004°10'0 0.9
2018-Apr-21 13:00N 47°24' W 004°10'6 6.1
2018-Apr-21 12:04N 47°18' W 004°10'0 1.3
2018-Apr-21 12:00N 47°18' W 004°10'12 4.3
2018-Apr-21 09:10N 47°30' W 004°16'1 5.6
2018-Apr-21 08:59N 47°31' W 004°16'4 8.4
2018-Apr-21 08:28N 47°35' W 004°16'7 5.8
2018-Apr-21 07:14N 47°41' W 004°22'6 2.5
2018-Apr-21 04:58N 47°36' W 004°22'1 2.8
2018-Apr-21 04:29N 47°34' W 004°21'4 9.5
2018-Apr-21 04:01N 47°30' W 004°22'4 5.5
2018-Apr-21 03:17N 47°26' W 004°22'2 8.0
2018-Apr-21 03:00N 47°24' W 004°21'3 5.0
2018-Apr-21 02:30N 47°21' W 004°22'3 6.0
2018-Apr-21 02:00N 47°18' W 004°22'2 5.0
2018-Apr-21 01:30N 47°18' W 004°25'33 3.3
2018-Apr-20 15:33N 47°48' W 004°45'0 7.5
2018-Apr-20 15:30N 47°48' W 004°46'3 5.3
2018-Apr-20 14:53N 47°47' W 004°50'3 8.0
2018-Apr-20 14:30N 47°47' W 004°55'4 4.6
2018-Apr-20 13:34N 47°47' W 005°01'1 1.9
2018-Apr-20 13:16N 47°47' W 005°02'1 3.7
2018-Apr-20 13:00N 47°46' W 005°02'4 8.4
2018-Apr-20 12:30N 47°42' W 005°01'3 3.9
2018-Apr-20 11:42N 47°42' W 004°57'0 1.6
2018-Apr-20 11:30N 47°42' W 004°56'2 3.6
2018-Apr-20 10:51N 47°41' W 004°53'2 2.7
2018-Apr-20 10:09N 47°41' W 004°50'1 4.7
2018-Apr-20 09:52N 47°39' W 004°51'20 3.5
2018-Apr-20 04:12N 47°24' W 004°33'2 8.1
2018-Apr-20 03:59N 47°22' W 004°33'3 7.1
2018-Apr-20 03:30N 47°18' W 004°33'4 5.4
2018-Apr-20 02:51N 47°15' W 004°33'6 3.3
2018-Apr-20 01:01N 47°13' W 004°25'0 9.0
2018-Apr-20 00:58N 47°13' W 004°24'2 3.9
2018-Apr-20 00:30N 47°13' W 004°21'4 4.8
2018-Apr-19 23:36N 47°13' W 004°15'1 3.4
2018-Apr-19 23:25N 47°13' W 004°14'6 9.7
2018-Apr-19 22:46N 47°15' W 004°05'3 9.8
2018-Apr-19 22:27N 47°16' W 004°01'5 9.7
2018-Apr-19 21:57N 47°17' W 003°54'4 9.5
2018-Apr-19 21:30N 47°18' W 003°48'5 9.2
2018-Apr-19 21:00N 47°18' W 003°41'1 2.2
2018-Apr-19 20:29N 47°19' W 003°41'5 9.1
2018-Apr-19 19:54N 47°25' W 003°42'4 9.1
2018-Apr-19 19:30N 47°28' W 003°42'5 9.3
2018-Apr-19 19:00N 47°33' W 003°41'2 4.7
2018-Apr-19 18:29N 47°35' W 003°41'4 7.3
2018-Apr-19 18:00N 47°36' W 003°36'2 4.3
2018-Apr-19 17:30N 47°37' W 003°34'4 8.6
2018-Apr-19 17:00N 47°40' W 003°29'5 9.2
2018-Apr-19 16:30N 47°42' W 003°22'3 5.0
2018-Apr-19 15:59N 47°44' W 003°21'0 0.0
2018-Apr-19 15:29N 47°44' W 003°21'0 0.0
2018-Apr-19 14:59N 47°44' W 003°21'0 0.0
2018-Apr-19 14:29N 47°44' W 003°21'0 0.0
2018-Apr-19 14:00N 47°44' W 003°21'0 0.7
2018-Apr-19 13:31N 47°44' W 003°21'4 8.8
2018-Apr-19 13:00N 47°41' W 003°25'5 9.2
2018-Apr-19 12:30N 47°40' W 003°32'5 9.2
2018-Apr-19 12:00N 47°39' W 003°39'4 8.9
2018-Apr-19 11:30N 47°39' W 003°45'5 9.2
2018-Apr-19 11:00N 47°38' W 003°52'5 8.8
2018-Apr-19 10:30N 47°38' W 003°59'4 8.5
2018-Apr-19 10:00N 47°39' W 004°05'5 9.4
2018-Apr-19 09:29N 47°41' W 004°11'7 9.2
2018-Apr-19 08:44N 47°44' W 004°21'4 9.6
2018-Apr-19 08:17N 47°46' W 004°26'4 9.7
2018-Apr-19 07:51N 47°48' W 004°32'5 9.9
2018-Apr-19 07:22N 47°51' W 004°38'410.2
2018-Apr-19 07:00N 47°52' W 004°43'510.4
2018-Apr-19 06:30N 47°55' W 004°50'510.1
2018-Apr-19 06:00N 47°58' W 004°56'5 9.4
2018-Apr-19 05:30N 47°60' W 005°02'4 8.3
2018-Apr-19 05:00N 48°02' W 005°08'4 8.0
2018-Apr-19 04:30N 48°04' W 005°12'4 8.0
2018-Apr-19 04:00N 48°07' W 005°17'5 8.1
2018-Apr-19 03:21N 48°11' W 005°22'4 8.2
2018-Apr-19 02:55N 48°14' W 005°26'242 8.0
2018-Apr-17 20:34N 52°16' W 005°54'40 7.4
2018-Apr-17 15:12N 52°55' W 005°58'1 6.9
2018-Apr-17 15:00N 52°56' W 005°57'4 8.6
2018-Apr-17 14:30N 53°01' W 005°58'5 9.6
2018-Apr-17 14:00N 53°05' W 005°59'510.0
2018-Apr-17 13:30N 53°10' W 005°60'5 9.5
2018-Apr-17 13:00N 53°15' W 006°01'5 8.1
2018-Apr-17 12:25N 53°19' W 006°04'3 7.5
2018-Apr-17 11:59N 53°21' W 006°09'3 3.1
2018-Apr-17 11:09N 53°21' W 006°14'0 0.0
2018-Apr-17 10:27N 53°21' W 006°14'0 0.0
2018-Apr-16 03:20N 53°21' W 006°14'0 0.0
2018-Apr-15 10:12N 53°21' W 006°14'1 2.7
2018-Apr-15 10:00N 53°21' W 006°13'7 4.5
2018-Apr-15 08:21N 53°23' W 006°01'1 0.2
2018-Apr-15 05:10N 53°24' W 006°02'0 1.4
2018-Apr-15 04:55N 53°23' W 006°01'0 0.8
2018-Apr-15 04:23N 53°24' W 006°02'0 0.7
2018-Apr-15 03:58N 53°24' W 006°01'27 0.9
2018-Apr-13 21:53N 53°49' W 005°46'  

Dump ship's entire track history